Time;durP1;ratioP1;P1;durP2;ratioP2;P2;SDS_P1;SDS_P2;PMS_P1;PMS_P2;Temp;Humidity;BMP_temperature;BMP_pressure;BME280_temperature;BME280_humidity;BME280_pressure;Samples;Min_cycle;Max_cycle;Signal;HPM_P1;HPM_P2
2022/01/28 00:02:00;;;;;;;;;;;8.80;99.90;;;;;;5035035;28;19913;-79
2022/01/28 00:04:27;;;;;;;;;;;8.80;99.90;;;;;;5034658;28;19913;-79
2022/01/28 00:06:52;;;;;;;;;;;8.80;99.90;;;;;;5054569;28;19948;-79
2022/01/28 00:09:18;;;;;;;;;;;8.70;99.90;;;;;;5054741;28;19959;-79
2022/01/28 00:11:44;;;;;;;;;;;8.90;99.90;;;;;;5054733;28;20361;-78
2022/01/28 00:14:25;;;;;;;;;;;9.00;99.90;;;;;;5059035;28;20122;-79
2022/01/28 00:17:35;;;;;;;;;;;9.00;99.90;;;;;;5074733;28;19909;-79
2022/01/28 00:39:27;;;;;;;;;;;9.10;99.90;;;;;;5054243;28;19909;-79
2022/01/28 00:41:53;;;;;;;;;;;9.20;99.90;;;;;;5054101;28;19913;-79
2022/01/28 00:44:18;;;;;;;;;;;9.20;99.90;;;;;;5051989;28;20381;-79
2022/01/28 00:46:44;;;;;;;;;;;9.10;99.90;;;;;;5053225;28;19939;-79
2022/01/28 00:49:10;;;;;;;;;;;8.70;99.90;;;;;;5053987;28;20324;-78
2022/01/28 00:51:36;;;;;;;;;;;8.60;99.90;;;;;;5053636;28;20039;-79
2022/01/28 00:54:01;;;;;;;;;;;8.60;99.90;;;;;;5052708;28;19999;-79
2022/01/28 00:56:27;;;;;;;;;;;8.80;99.90;;;;;;5070436;28;19910;-79
2022/01/28 00:58:52;;;;;;;;;;;9.00;99.90;;;;;;5068829;28;19913;-79
2022/01/28 01:01:18;;;;;;;;;;;8.70;99.90;;;;;;5046074;28;19923;-79
2022/01/28 01:03:43;;;;;;;;;;;8.60;99.90;;;;;;5073435;28;19948;-78
2022/01/28 01:06:09;;;;;;;;;;;8.80;99.90;;;;;;5055454;28;19915;-79
2022/01/28 01:08:35;;;;;;;;;;;8.70;99.90;;;;;;5073561;28;20319;-78
2022/01/28 01:11:00;;;;;;;;;;;8.60;99.90;;;;;;5067772;28;19920;-78
2022/01/28 01:13:26;;;;;;;;;;;8.70;99.90;;;;;;5053257;28;20335;-79
2022/01/28 01:15:56;;;;;;;;;;;8.70;99.90;;;;;;5053560;28;19940;-79
2022/01/28 01:18:33;;;;;;;;;;;8.70;99.90;;;;;;5053658;28;19909;-79
2022/01/28 01:21:05;;;;;;;;;;;8.50;99.90;;;;;;5029634;28;20007;-78
2022/01/28 01:23:39;;;;;;;;;;;8.40;99.90;;;;;;5033501;28;19917;-79
2022/01/28 01:28:34;;;;;;;;;;;8.50;99.90;;;;;;5033374;28;19919;-79
2022/01/28 01:31:02;;;;;;;;;;;8.70;99.90;;;;;;5033612;28;19960;-79
2022/01/28 01:33:31;;;;;;;;;;;8.60;99.90;;;;;;5053218;28;19917;-79
2022/01/28 01:36:00;;;;;;;;;;;8.60;99.90;;;;;;5053308;28;20282;-79
2022/01/28 01:38:27;;;;;;;;;;;8.70;99.90;;;;;;5035365;28;19909;-78
2022/01/28 01:40:58;;;;;;;;;;;8.60;99.90;;;;;;5048933;28;19931;-79
2022/01/28 01:46:10;;;;;;;;;;;8.50;99.90;;;;;;5053128;28;20365;-79
2022/01/28 01:54:04;;;;;;;;;;;8.80;99.90;;;;;;5033275;28;19916;-79
2022/01/28 01:56:31;;;;;;;;;;;8.90;99.90;;;;;;5031761;28;20290;-79
2022/01/28 01:58:57;;;;;;;;;;;9.00;99.90;;;;;;5033135;28;19917;-79
2022/01/28 02:01:23;;;;;;;;;;;8.90;99.90;;;;;;5013203;28;19909;-79
2022/01/28 02:03:48;;;;;;;;;;;8.70;99.90;;;;;;5032935;28;19914;-78
2022/01/28 02:06:17;;;;;;;;;;;8.50;99.90;;;;;;5032780;28;19992;-79
2022/01/28 02:08:43;;;;;;;;;;;8.50;99.90;;;;;;5033026;28;19913;-78
2022/01/28 02:11:08;;;;;;;;;;;8.40;99.90;;;;;;5030106;28;19923;-79
2022/01/28 02:13:35;;;;;;;;;;;8.60;99.90;;;;;;5033804;28;19913;-79
2022/01/28 02:16:01;;;;;;;;;;;8.80;99.90;;;;;;5053005;28;20329;-79
2022/01/28 02:18:26;;;;;;;;;;;8.70;99.90;;;;;;5037813;28;19909;-79
2022/01/28 02:20:55;;;;;;;;;;;8.70;99.90;;;;;;5036369;28;19917;-79
2022/01/28 02:23:22;;;;;;;;;;;8.70;99.90;;;;;;5056776;28;19951;-79
2022/01/28 02:25:48;;;;;;;;;;;8.70;99.90;;;;;;5056732;28;19909;-79
2022/01/28 02:28:18;;;;;;;;;;;8.80;99.90;;;;;;5056626;28;19913;-78
2022/01/28 02:30:43;;;;;;;;;;;8.90;99.90;;;;;;5054822;28;19912;-78
2022/01/28 02:33:14;;;;;;;;;;;9.00;99.90;;;;;;5055131;28;19909;-79
2022/01/28 02:35:42;;;;;;;;;;;9.10;99.90;;;;;;5056531;28;20436;-79
2022/01/28 02:38:08;;;;;;;;;;;9.10;99.90;;;;;;5056453;28;20376;-78
2022/01/28 02:40:34;;;;;;;;;;;9.20;99.90;;;;;;5055884;28;19913;-78
2022/01/28 02:43:14;;;;;;;;;;;9.30;99.90;;;;;;5054005;28;19909;-78
2022/01/28 02:45:41;;;;;;;;;;;9.30;99.90;;;;;;5056339;28;19916;-79
2022/01/28 02:48:14;;;;;;;;;;;9.40;99.90;;;;;;5056233;28;19935;-79
2022/01/28 02:50:48;;;;;;;;;;;9.20;99.90;;;;;;5038207;28;19908;-79
2022/01/28 02:53:22;;;;;;;;;;;9.40;99.90;;;;;;5075443;28;19912;-79
2022/01/28 02:55:48;;;;;;;;;;;9.40;99.90;;;;;;5076232;28;19955;-79
2022/01/28 02:58:19;;;;;;;;;;;9.40;99.90;;;;;;5076120;28;19959;-79
2022/01/28 03:00:47;;;;;;;;;;;9.40;99.90;;;;;;5074029;28;19908;-79
2022/01/28 03:03:13;;;;;;;;;;;9.40;99.90;;;;;;5055971;28;19916;-79
2022/01/28 03:05:39;;;;;;;;;;;9.50;99.90;;;;;;5075861;28;19912;-79
2022/01/28 03:08:05;;;;;;;;;;;9.60;99.90;;;;;;5058004;28;19920;-79
2022/01/28 03:15:28;;;;;;;;;;;9.50;99.90;;;;;;5075359;28;19921;-79
2022/01/28 03:18:07;;;;;;;;;;;9.50;99.90;;;;;;5057650;28;19912;-79
2022/01/28 03:20:40;;;;;;;;;;;9.50;99.90;;;;;;5057164;28;19909;-79
2022/01/28 03:23:07;;;;;;;;;;;9.50;99.90;;;;;;5073585;28;19908;-79
2022/01/28 03:25:35;;;;;;;;;;;9.50;99.90;;;;;;5057631;28;19924;-79
2022/01/28 03:28:01;;;;;;;;;;;9.40;99.90;;;;;;5075005;28;19920;-79
2022/01/28 03:30:26;;;;;;;;;;;9.50;99.90;;;;;;5074577;28;19908;-78
2022/01/28 03:32:52;;;;;;;;;;;9.60;99.90;;;;;;5054552;28;19917;-79
2022/01/28 03:35:19;;;;;;;;;;;9.40;99.90;;;;;;5055353;28;19909;-79
2022/01/28 03:37:45;;;;;;;;;;;9.20;99.90;;;;;;5055291;28;19971;-78
2022/01/28 03:40:11;;;;;;;;;;;9.30;99.90;;;;;;5055482;28;20405;-78
2022/01/28 03:42:37;;;;;;;;;;;9.40;99.90;;;;;;5065528;28;19909;-79
2022/01/28 03:45:03;;;;;;;;;;;9.50;99.90;;;;;;5075265;28;19908;-79
2022/01/28 03:47:29;;;;;;;;;;;9.40;99.90;;;;;;5075213;28;19912;-79
2022/01/28 03:49:54;;;;;;;;;;;9.30;99.90;;;;;;5074917;28;19909;-79
2022/01/28 03:52:20;;;;;;;;;;;9.40;99.90;;;;;;5071804;28;19908;-78
2022/01/28 03:54:46;;;;;;;;;;;9.30;99.90;;;;;;5074812;28;20277;-78
2022/01/28 03:57:11;;;;;;;;;;;9.20;99.90;;;;;;5057158;28;19913;-79
2022/01/28 03:59:37;;;;;;;;;;;9.20;99.90;;;;;;5074986;28;20314;-79
2022/01/28 04:02:04;;;;;;;;;;;9.20;99.90;;;;;;5071653;28;19909;-79
2022/01/28 04:12:27;;;;;;;;;;;9.40;99.90;;;;;;5059454;28;20132;-79
2022/01/28 04:17:36;;;;;;;;;;;9.20;99.90;;;;;;5054364;28;19916;-79
2022/01/28 04:20:02;;;;;;;;;;;9.20;99.90;;;;;;5054239;28;20380;-79
2022/01/28 04:22:28;;;;;;;;;;;9.20;99.90;;;;;;5035224;28;19959;-79
2022/01/28 04:24:54;;;;;;;;;;;9.10;99.90;;;;;;5033186;28;20002;-79
2022/01/28 04:27:19;;;;;;;;;;;9.20;99.90;;;;;;5034551;28;19919;-79
2022/01/28 04:29:45;;;;;;;;;;;9.30;99.90;;;;;;5034351;28;19909;-79
2022/01/28 04:32:11;;;;;;;;;;;9.20;99.90;;;;;;5029688;28;20365;-79
2022/01/28 04:34:37;;;;;;;;;;;9.20;99.90;;;;;;5034234;28;19913;-79
2022/01/28 04:40:20;;;;;;;;;;;9.30;99.90;;;;;;4992338;28;19953;-79
2022/01/28 04:45:30;;;;;;;;;;;9.20;99.90;;;;;;5034152;28;19917;-78
2022/01/28 04:48:09;;;;;;;;;;;9.20;99.90;;;;;;5032450;28;20279;-79
2022/01/28 04:53:32;;;;;;;;;;;9.30;99.90;;;;;;5051881;28;19909;-79
2022/01/28 04:56:31;;;;;;;;;;;9.40;99.90;;;;;;5053931;28;19916;-79
2022/01/28 04:59:18;;;;;;;;;;;9.30;99.90;;;;;;5053305;28;19919;-79
2022/01/28 05:07:20;;;;;;;;;;;9.20;99.90;;;;;;5053532;28;20281;-79
2022/01/28 05:27:47;;;;;;;;;;;8.90;99.90;;;;;;5053081;28;19920;-78
2022/01/28 05:30:13;;;;;;;;;;;9.10;99.90;;;;;;5053144;28;19954;-79
2022/01/28 05:32:38;;;;;;;;;;;9.10;99.90;;;;;;5032080;28;20296;-79
2022/01/28 05:35:04;;;;;;;;;;;9.20;99.90;;;;;;5052938;28;19909;-79
2022/01/28 05:37:30;;;;;;;;;;;9.30;99.90;;;;;;5053289;28;19909;-79
2022/01/28 05:39:55;;;;;;;;;;;9.30;99.90;;;;;;5035344;28;19913;-79
2022/01/28 05:42:21;;;;;;;;;;;9.30;99.90;;;;;;5035163;28;19948;-79
2022/01/28 05:44:47;;;;;;;;;;;9.10;99.90;;;;;;5053265;28;19917;-79
2022/01/28 05:47:15;;;;;;;;;;;8.90;99.90;;;;;;5052949;28;19921;-79
2022/01/28 05:49:42;;;;;;;;;;;9.10;99.90;;;;;;5053183;28;19970;-79
2022/01/28 05:52:08;;;;;;;;;;;9.10;99.90;;;;;;5058208;28;19908;-79
2022/01/28 05:54:33;;;;;;;;;;;9.20;99.90;;;;;;5072941;28;19966;-79
2022/01/28 05:56:59;;;;;;;;;;;9.10;99.90;;;;;;5073137;28;19940;-79
2022/01/28 05:59:25;;;;;;;;;;;9.20;99.90;;;;;;5073057;28;19932;-78
2022/01/28 06:01:50;;;;;;;;;;;9.00;99.90;;;;;;5069787;28;19909;-79
2022/01/28 06:04:16;;;;;;;;;;;9.10;99.90;;;;;;5036222;28;19940;-79
2022/01/28 06:06:42;;;;;;;;;;;9.10;99.90;;;;;;5072776;28;19909;-79
2022/01/28 06:09:08;;;;;;;;;;;9.30;99.90;;;;;;5054970;28;20073;-79
2022/01/28 06:11:33;;;;;;;;;;;9.30;99.90;;;;;;5063118;28;19912;-79
2022/01/28 06:13:59;;;;;;;;;;;9.20;99.90;;;;;;5052117;28;19921;-79
2022/01/28 06:16:25;;;;;;;;;;;9.20;99.90;;;;;;5052852;28;20388;-79
2022/01/28 06:18:50;;;;;;;;;;;8.90;99.90;;;;;;5052637;28;19908;-79
2022/01/28 06:21:17;;;;;;;;;;;9.10;99.90;;;;;;5043778;28;19996;-79
2022/01/28 06:23:43;;;;;;;;;;;9.20;99.90;;;;;;5032135;28;19996;-78
2022/01/28 06:26:09;;;;;;;;;;;9.30;99.90;;;;;;5032808;28;19963;-78
2022/01/28 06:28:35;;;;;;;;;;;9.30;99.90;;;;;;5032756;28;19913;-79
2022/01/28 06:31:00;;;;;;;;;;;9.20;99.90;;;;;;5031280;28;19917;-78
2022/01/28 06:33:26;;;;;;;;;;;9.00;99.90;;;;;;5030663;28;19909;-78
2022/01/28 06:35:52;;;;;;;;;;;8.90;99.90;;;;;;5032832;28;19909;-78
2022/01/28 06:38:17;;;;;;;;;;;8.90;99.90;;;;;;5032702;28;19909;-79
2022/01/28 06:40:43;;;;;;;;;;;9.00;99.90;;;;;;5030479;28;19920;-79
2022/01/28 06:43:12;;;;;;;;;;;8.70;99.90;;;;;;5031128;28;20001;-79
2022/01/28 06:45:41;;;;;;;;;;;8.50;99.90;;;;;;5032644;28;19916;-79
2022/01/28 06:48:10;;;;;;;;;;;8.60;99.90;;;;;;5031286;28;19913;-79
2022/01/28 06:50:36;;;;;;;;;;;8.70;99.90;;;;;;5031913;28;19909;-79
2022/01/28 06:53:02;;;;;;;;;;;8.70;99.90;;;;;;5049874;28;20281;-79
2022/01/28 06:55:27;;;;;;;;;;;8.60;99.90;;;;;;5034374;28;19909;-79
2022/01/28 06:57:54;;;;;;;;;;;8.60;99.90;;;;;;5052472;28;20004;-79
2022/01/28 07:00:19;;;;;;;;;;;8.60;99.90;;;;;;5052327;28;20369;-79
2022/01/28 07:02:46;;;;;;;;;;;8.80;99.90;;;;;;5044366;28;19987;-78
2022/01/28 07:05:12;;;;;;;;;;;8.90;99.90;;;;;;5019297;28;20285;-79
2022/01/28 07:07:37;;;;;;;;;;;9.00;99.90;;;;;;5055858;28;19913;-79
2022/01/28 07:10:03;;;;;;;;;;;9.10;99.90;;;;;;5056080;28;19909;-79
2022/01/28 07:12:29;;;;;;;;;;;9.00;99.90;;;;;;5046291;28;19909;-79
2022/01/28 07:14:54;;;;;;;;;;;8.80;99.90;;;;;;5069001;28;20004;-79
2022/01/28 07:17:20;;;;;;;;;;;8.80;99.90;;;;;;5075752;28;19912;-78
2022/01/28 07:19:46;;;;;;;;;;;8.80;99.90;;;;;;5075508;28;19913;-78
2022/01/28 07:22:11;;;;;;;;;;;8.80;99.90;;;;;;5072482;28;19908;-79
2022/01/28 07:24:37;;;;;;;;;;;8.90;99.90;;;;;;5075646;28;19909;-79
2022/01/28 07:27:02;;;;;;;;;;;8.90;99.90;;;;;;5075568;28;20323;-79
2022/01/28 07:29:31;;;;;;;;;;;8.90;99.90;;;;;;5075550;28;20328;-78
2022/01/28 07:31:56;;;;;;;;;;;8.80;99.90;;;;;;5061689;28;20007;-79
2022/01/28 07:34:23;;;;;;;;;;;8.80;99.90;;;;;;5073880;28;20003;-79
2022/01/28 07:36:48;;;;;;;;;;;8.80;99.90;;;;;;5075409;28;19914;-79
2022/01/28 07:39:14;;;;;;;;;;;9.00;99.90;;;;;;5057486;28;20372;-78
2022/01/28 07:41:39;;;;;;;;;;;9.10;99.90;;;;;;5071938;28;19917;-79
2022/01/28 07:44:05;;;;;;;;;;;9.20;99.90;;;;;;5074643;28;20292;-79
2022/01/28 07:46:31;;;;;;;;;;;9.00;99.90;;;;;;5075306;28;19908;-79
2022/01/28 07:48:57;;;;;;;;;;;9.10;99.90;;;;;;5075073;28;19909;-79
2022/01/28 07:51:23;;;;;;;;;;;8.60;99.90;;;;;;5065617;28;19909;-79
2022/01/28 07:53:48;;;;;;;;;;;8.70;99.90;;;;;;5068980;28;19909;-78
2022/01/28 07:56:14;;;;;;;;;;;9.00;99.90;;;;;;5075119;28;19913;-79
2022/01/28 07:58:40;;;;;;;;;;;9.00;99.90;;;;;;5075489;28;19915;-78
2022/01/28 08:01:06;;;;;;;;;;;9.00;99.90;;;;;;5074320;28;19908;-78
2022/01/28 08:03:32;;;;;;;;;;;9.10;99.90;;;;;;5054482;28;19908;-79
2022/01/28 08:05:57;;;;;;;;;;;9.00;99.90;;;;;;5040300;28;19917;-78
2022/01/28 08:08:23;;;;;;;;;;;8.90;99.90;;;;;;5055350;28;20515;-79
2022/01/28 08:10:49;;;;;;;;;;;8.90;99.90;;;;;;5054423;28;20280;-78
2022/01/28 08:13:14;;;;;;;;;;;9.10;99.90;;;;;;5043504;28;19909;-79
2022/01/28 08:15:40;;;;;;;;;;;9.00;99.90;;;;;;5054353;28;19924;-79
2022/01/28 08:18:07;;;;;;;;;;;9.00;99.90;;;;;;5055076;28;19909;-78
2022/01/28 08:20:33;;;;;;;;;;;9.10;99.90;;;;;;5036546;28;19909;-79
2022/01/28 08:22:59;;;;;;;;;;;9.10;99.90;;;;;;5052444;28;19908;-79
2022/01/28 08:25:26;;;;;;;;;;;9.20;99.90;;;;;;5055269;28;19916;-79
2022/01/28 08:27:52;;;;;;;;;;;9.30;99.90;;;;;;5055073;28;19999;-78
2022/01/28 08:30:18;;;;;;;;;;;9.20;99.90;;;;;;5036693;28;19951;-79
2022/01/28 08:32:44;;;;;;;;;;;9.30;99.90;;;;;;5030421;28;20035;-78
2022/01/28 08:35:10;;;;;;;;;;;9.40;99.90;;;;;;5034631;28;20009;-78
2022/01/28 08:37:36;;;;;;;;;;;9.10;99.90;;;;;;5034621;28;19910;-78
2022/01/28 08:40:02;;;;;;;;;;;9.00;99.90;;;;;;5033555;28;19913;-78
2022/01/28 08:42:31;;;;;;;;;;;9.10;99.90;;;;;;5030702;28;19955;-79
2022/01/28 08:44:57;;;;;;;;;;;9.10;99.90;;;;;;5034730;28;20000;-79
2022/01/28 08:47:22;;;;;;;;;;;9.20;99.90;;;;;;5033419;28;20008;-78
2022/01/28 08:49:48;;;;;;;;;;;9.30;99.90;;;;;;5032613;28;19909;-79
2022/01/28 08:52:14;;;;;;;;;;;9.50;99.90;;;;;;5031382;28;20007;-78
2022/01/28 08:54:40;;;;;;;;;;;9.70;99.90;;;;;;5051347;28;20345;-79
2022/01/28 08:57:06;;;;;;;;;;;9.70;99.90;;;;;;5052000;28;19909;-79
2022/01/28 08:59:31;;;;;;;;;;;9.70;99.90;;;;;;5052049;28;19909;-79
2022/01/28 09:01:57;;;;;;;;;;;9.50;99.90;;;;;;5043882;28;19995;-79
2022/01/28 09:04:23;;;;;;;;;;;9.30;99.90;;;;;;5030120;28;19913;-79
2022/01/28 09:06:48;;;;;;;;;;;9.20;99.90;;;;;;5053508;28;19909;-78
2022/01/28 09:09:14;;;;;;;;;;;9.20;99.90;;;;;;5053663;28;19919;-78
2022/01/28 09:14:14;;;;;;;;;;;9.10;99.90;;;;;;5040742;28;19925;-78
2022/01/28 09:16:40;;;;;;;;;;;9.40;99.90;;;;;;5035701;28;19909;-79
2022/01/28 09:19:06;;;;;;;;;;;9.70;99.90;;;;;;5053208;28;19915;-78
2022/01/28 09:21:32;;;;;;;;;;;9.80;99.90;;;;;;5050748;28;20021;-79
2022/01/28 09:23:58;;;;;;;;;;;9.90;99.90;;;;;;5052828;28;19955;-79
2022/01/28 09:26:24;;;;;;;;;;;10.00;99.90;;;;;;5053419;28;19913;-78
2022/01/28 09:28:49;;;;;;;;;;;10.00;99.90;;;;;;5053384;28;19913;-79
2022/01/28 09:31:15;;;;;;;;;;;10.10;99.90;;;;;;5051816;28;19909;-79
2022/01/28 09:33:40;;;;;;;;;;;9.80;99.90;;;;;;5051227;28;19944;-79
2022/01/28 09:36:07;;;;;;;;;;;9.90;99.90;;;;;;5053288;28;19995;-79
2022/01/28 09:38:33;;;;;;;;;;;9.80;99.90;;;;;;5053345;28;20384;-78
2022/01/28 09:41:00;;;;;;;;;;;9.70;99.90;;;;;;5055275;28;19927;-79
2022/01/28 09:43:26;;;;;;;;;;;9.90;99.90;;;;;;5054825;28;19954;-79
2022/01/28 09:45:52;;;;;;;;;;;10.10;99.90;;;;;;5053296;28;19908;-79
2022/01/28 09:48:18;;;;;;;;;;;10.20;99.90;;;;;;5052894;28;19980;-78
2022/01/28 09:50:46;;;;;;;;;;;10.00;99.90;;;;;;5035122;28;19913;-78
2022/01/28 09:53:12;;;;;;;;;;;10.10;99.90;;;;;;5071022;28;19908;-79
2022/01/28 09:55:38;;;;;;;;;;;10.20;99.90;;;;;;5054844;28;19908;-79
2022/01/28 09:58:04;;;;;;;;;;;10.20;99.90;;;;;;5073096;28;19919;-79
2022/01/28 10:00:33;;;;;;;;;;;10.40;99.90;;;;;;5072957;28;19931;-78
2022/01/28 10:03:01;;;;;;;;;;;10.60;99.90;;;;;;5070240;28;20031;-79
2022/01/28 10:05:31;;;;;;;;;;;10.60;99.90;;;;;;5053716;28;19951;-79
2022/01/28 10:08:00;;;;;;;;;;;10.50;99.90;;;;;;5073040;28;19923;-79
2022/01/28 10:10:25;;;;;;;;;;;10.40;99.90;;;;;;5054907;28;19909;-79
2022/01/28 10:13:11;;;;;;;;;;;10.70;99.90;;;;;;5050758;28;19915;-79
2022/01/28 10:15:50;;;;;;;;;;;10.70;99.90;;;;;;5052316;28;19925;-79
2022/01/28 10:18:16;;;;;;;;;;;10.40;99.90;;;;;;5052777;28;19931;-79
2022/01/28 10:20:43;;;;;;;;;;;10.30;99.90;;;;;;5052440;28;20372;-78
2022/01/28 10:23:11;;;;;;;;;;;10.10;99.90;;;;;;5056701;28;19908;-79
2022/01/28 10:25:38;;;;;;;;;;;9.80;99.90;;;;;;5053015;28;19915;-79
2022/01/28 10:28:05;;;;;;;;;;;10.00;99.90;;;;;;5034714;28;19925;-79
2022/01/28 10:30:34;;;;;;;;;;;9.80;99.90;;;;;;5034582;28;20266;-78
2022/01/28 10:33:16;;;;;;;;;;;9.90;99.90;;;;;;5057494;28;19924;-78
2022/01/28 10:36:04;;;;;;;;;;;10.20;99.90;;;;;;5052601;28;19916;-79
2022/01/28 10:38:32;;;;;;;;;;;9.90;99.90;;;;;;5035826;28;19909;-79
2022/01/28 10:41:08;;;;;;;;;;;10.00;99.90;;;;;;5055863;28;19917;-79
2022/01/28 10:43:41;;;;;;;;;;;10.10;99.90;;;;;;5054558;28;19959;-79
2022/01/28 10:46:06;;;;;;;;;;;9.90;99.90;;;;;;5038556;28;20449;-79
2022/01/28 10:48:32;;;;;;;;;;;10.30;99.90;;;;;;5056108;28;20004;-79
2022/01/28 10:50:58;;;;;;;;;;;10.40;99.90;;;;;;5054924;28;19917;-79
2022/01/28 10:53:27;;;;;;;;;;;10.50;99.90;;;;;;5054149;28;19913;-79
2022/01/28 10:55:54;;;;;;;;;;;10.90;99.90;;;;;;5056518;28;19991;-78
2022/01/28 10:58:21;;;;;;;;;;;11.00;99.90;;;;;;5056123;28;19942;-78
2022/01/28 11:00:49;;;;;;;;;;;11.20;99.90;;;;;;5039110;28;19909;-79
2022/01/28 11:03:16;;;;;;;;;;;11.00;99.90;;;;;;5074116;28;20296;-79
2022/01/28 11:05:43;;;;;;;;;;;11.10;99.90;;;;;;5056363;28;19917;-79
2022/01/28 11:08:11;;;;;;;;;;;11.30;99.90;;;;;;5057908;28;19912;-79
2022/01/28 11:10:37;;;;;;;;;;;11.40;99.90;;;;;;5074593;28;19908;-78
2022/01/28 11:13:03;;;;;;;;;;;11.40;99.90;;;;;;5054384;28;20000;-79
2022/01/28 11:15:29;;;;;;;;;;;11.50;99.90;;;;;;5055392;28;19952;-79
2022/01/28 11:17:57;;;;;;;;;;;11.50;99.90;;;;;;5055639;28;19909;-79
2022/01/28 11:20:25;;;;;;;;;;;11.30;99.90;;;;;;5055724;28;19909;-79
2022/01/28 11:23:03;;;;;;;;;;;11.30;99.90;;;;;;5060679;28;20281;-79
2022/01/28 11:25:47;;;;;;;;;;;11.30;99.90;;;;;;5055627;28;19909;-79
2022/01/28 11:28:13;;;;;;;;;;;11.20;99.90;;;;;;5037656;28;20281;-79
2022/01/28 11:30:49;;;;;;;;;;;11.00;99.90;;;;;;5055278;28;19908;-79
2022/01/28 11:33:15;;;;;;;;;;;10.90;99.90;;;;;;5073629;28;19991;-79
2022/01/28 11:35:57;;;;;;;;;;;11.00;99.90;;;;;;5075390;28;20289;-78
2022/01/28 11:38:26;;;;;;;;;;;10.90;99.90;;;;;;5075458;28;19908;-79
2022/01/28 11:40:52;;;;;;;;;;;11.00;99.90;;;;;;5071447;28;19916;-78
2022/01/28 11:43:40;;;;;;;;;;;10.90;99.90;;;;;;5067199;28;19915;-78
2022/01/28 11:46:19;;;;;;;;;;;10.70;99.90;;;;;;5074849;28;19916;-79
2022/01/28 11:48:54;;;;;;;;;;;10.60;99.90;;;;;;5074842;28;20011;-79
2022/01/28 11:51:32;;;;;;;;;;;10.80;99.90;;;;;;5048877;28;20292;-79
2022/01/28 11:54:02;;;;;;;;;;;10.70;99.90;;;;;;5054330;28;20319;-79
2022/01/28 11:56:29;;;;;;;;;;;11.00;99.90;;;;;;5057080;28;19909;-78
2022/01/28 11:59:00;;;;;;;;;;;11.10;99.90;;;;;;5038191;28;19913;-79
2022/01/28 12:01:45;;;;;;;;;;;11.10;99.90;;;;;;5061519;28;19913;-79
2022/01/28 12:04:31;;;;;;;;;;;11.20;99.90;;;;;;5056507;28;19989;-79
2022/01/28 12:07:05;;;;;;;;;;;11.20;99.90;;;;;;5029030;28;20348;-79
2022/01/28 12:09:31;;;;;;;;;;;11.20;99.90;;;;;;5062469;28;19909;-79
2022/01/28 12:11:58;;;;;;;;;;;11.70;99.90;;;;;;5065144;28;19916;-79
2022/01/28 12:14:43;;;;;;;;;;;11.70;99.90;;;;;;5047441;28;20063;-79
2022/01/28 12:17:27;;;;;;;;;;;11.80;99.90;;;;;;5047466;28;19996;-79
2022/01/28 12:20:11;;;;;;;;;;;11.80;99.90;;;;;;5065070;28;19908;-79
2022/01/28 12:22:55;;;;;;;;;;;12.00;99.90;;;;;;5063825;28;20281;-79
2022/01/28 12:25:36;;;;;;;;;;;12.30;99.90;;;;;;5047409;28;19955;-79
2022/01/28 12:28:20;;;;;;;;;;;12.60;99.90;;;;;;5075192;28;19913;-79
2022/01/28 12:30:46;;;;;;;;;;;12.70;99.90;;;;;;5055472;28;19908;-79
2022/01/28 12:33:12;;;;;;;;;;;12.80;99.90;;;;;;5072512;28;19915;-79
2022/01/28 12:35:38;;;;;;;;;;;12.80;99.90;;;;;;5074466;28;20246;-79
2022/01/28 12:38:05;;;;;;;;;;;13.00;99.90;;;;;;5056239;28;20034;-79
2022/01/28 12:40:40;;;;;;;;;;;13.20;99.90;;;;;;5074321;28;20317;-79
2022/01/28 12:43:06;;;;;;;;;;;12.90;99.90;;;;;;5034802;28;19915;-79
2022/01/28 12:45:32;;;;;;;;;;;13.30;99.90;;;;;;5053464;28;19951;-79
2022/01/28 12:47:58;;;;;;;;;;;13.70;99.90;;;;;;5053643;28;19940;-79
2022/01/28 12:50:24;;;;;;;;;;;14.50;99.90;;;;;;5052390;28;20330;-79
2022/01/28 12:52:50;;;;;;;;;;;17.90;99.90;;;;;;5050415;28;19909;-79
2022/01/28 12:55:15;;;;;;;;;;;18.40;99.90;;;;;;5035277;28;19915;-79
2022/01/28 12:57:42;;;;;;;;;;;18.80;99.90;;;;;;5054017;28;19912;-79
2022/01/28 13:00:08;;;;;;;;;;;17.00;99.90;;;;;;5053869;28;19909;-80
2022/01/28 13:02:34;;;;;;;;;;;15.90;99.90;;;;;;5068240;28;20376;-79
2022/01/28 13:10:23;;;;;;;;;;;15.00;99.90;;;;;;5074089;28;20280;-78
2022/01/28 13:12:50;;;;;;;;;;;14.20;99.90;;;;;;5074211;28;19999;-79
2022/01/28 13:15:16;;;;;;;;;;;14.10;99.90;;;;;;5073651;28;20007;-79
2022/01/28 13:17:51;;;;;;;;;;;14.10;99.90;;;;;;5073790;28;19962;-79
2022/01/28 13:20:17;;;;;;;;;;;13.90;99.90;;;;;;5074018;28;19908;-79
2022/01/28 13:22:48;;;;;;;;;;;13.80;99.90;;;;;;5073928;28;19916;-78
2022/01/28 13:25:24;;;;;;;;;;;13.60;99.90;;;;;;5073879;28;19909;-79
2022/01/28 13:27:54;;;;;;;;;;;13.70;99.90;;;;;;5073692;28;19912;-79
2022/01/28 13:30:20;;;;;;;;;;;13.60;99.90;;;;;;5073872;28;19908;-79
2022/01/28 13:32:47;;;;;;;;;;;13.20;99.90;;;;;;5073638;28;19932;-80
2022/01/28 13:35:19;;;;;;;;;;;13.40;99.90;;;;;;5073575;28;19915;-79
2022/01/28 13:37:46;;;;;;;;;;;13.60;99.90;;;;;;5073389;28;19919;-80
2022/01/28 13:40:18;;;;;;;;;;;13.40;99.90;;;;;;5073847;28;19916;-80
2022/01/28 13:43:00;;;;;;;;;;;13.10;99.90;;;;;;5073617;28;19999;-79
2022/01/28 13:45:37;;;;;;;;;;;13.40;99.90;;;;;;5073476;28;19917;-79
2022/01/28 13:48:15;;;;;;;;;;;13.60;99.90;;;;;;5073849;28;19912;-80
2022/01/28 13:50:42;;;;;;;;;;;13.50;99.90;;;;;;5073457;28;20045;-79
2022/01/28 13:55:44;;;;;;;;;;;13.70;99.90;;;;;;5073712;28;19912;-79
2022/01/28 13:58:10;;;;;;;;;;;13.80;99.90;;;;;;5073545;28;19916;-79
2022/01/28 14:00:39;;;;;;;;;;;13.80;99.90;;;;;;5073286;28;19908;-79
2022/01/28 14:03:13;;;;;;;;;;;13.70;99.90;;;;;;5073442;28;19909;-79
2022/01/28 14:05:47;;;;;;;;;;;13.50;99.90;;;;;;5073619;28;19912;-79
2022/01/28 14:08:13;;;;;;;;;;;13.60;99.90;;;;;;5055213;28;20408;-79
2022/01/28 14:10:39;;;;;;;;;;;13.70;99.90;;;;;;5073315;28;19913;-79
2022/01/28 14:13:21;;;;;;;;;;;13.30;99.90;;;;;;5074020;28;20368;-79
2022/01/28 14:16:03;;;;;;;;;;;13.10;99.90;;;;;;5059286;28;19963;-79
2022/01/28 14:18:29;;;;;;;;;;;13.30;99.90;;;;;;5059030;28;19954;-79
2022/01/28 14:20:54;;;;;;;;;;;13.60;99.90;;;;;;5077206;28;19912;-79
2022/01/28 14:23:20;;;;;;;;;;;13.40;99.90;;;;;;5077341;28;20292;-78
2022/01/28 14:25:45;;;;;;;;;;;13.30;99.90;;;;;;5077446;28;19954;-79
2022/01/28 14:31:06;;;;;;;;;;;13.70;99.90;;;;;;5035886;28;19923;-79
2022/01/28 14:33:31;;;;;;;;;;;13.50;99.90;;;;;;5058806;28;19915;-79
2022/01/28 14:35:57;;;;;;;;;;;13.30;99.90;;;;;;5058905;28;20439;-79
2022/01/28 14:38:23;;;;;;;;;;;13.50;99.90;;;;;;5076516;28;19912;-79
2022/01/28 14:40:48;;;;;;;;;;;13.50;99.90;;;;;;5077131;28;20277;-79
2022/01/28 14:43:14;;;;;;;;;;;12.80;99.90;;;;;;5076979;28;19993;-79
2022/01/28 14:45:39;;;;;;;;;;;13.10;99.90;;;;;;5076870;28;20376;-79
2022/01/28 14:48:05;;;;;;;;;;;13.20;99.90;;;;;;5076855;28;19912;-79
2022/01/28 14:50:33;;;;;;;;;;;13.20;99.90;;;;;;5076625;28;19917;-79
2022/01/28 14:52:58;;;;;;;;;;;13.40;99.90;;;;;;5076564;28;19909;-79
2022/01/28 14:55:24;;;;;;;;;;;13.50;99.90;;;;;;5076602;28;20394;-79
2022/01/28 14:57:49;;;;;;;;;;;13.10;99.90;;;;;;5076719;28;19915;-79
2022/01/28 15:00:15;;;;;;;;;;;13.10;99.90;;;;;;5076753;28;20343;-79
2022/01/28 15:02:41;;;;;;;;;;;13.10;99.90;;;;;;5058428;28;19947;-79
2022/01/28 15:05:06;;;;;;;;;;;12.90;99.90;;;;;;5076493;28;19962;-79
2022/01/28 15:07:33;;;;;;;;;;;12.60;99.90;;;;;;5076262;28;19912;-79
2022/01/28 15:10:00;;;;;;;;;;;12.80;99.90;;;;;;5076416;28;19912;-79
2022/01/28 15:12:26;;;;;;;;;;;12.60;99.90;;;;;;5076725;28;19995;-78
2022/01/28 15:14:52;;;;;;;;;;;12.40;99.90;;;;;;5054796;28;19928;-79
2022/01/28 15:17:18;;;;;;;;;;;12.50;99.90;;;;;;5056209;28;20018;-78
2022/01/28 15:19:45;;;;;;;;;;;12.40;99.90;;;;;;5054858;28;20350;-79
2022/01/28 15:22:10;;;;;;;;;;;12.30;99.90;;;;;;5054779;28;19909;-78
2022/01/28 15:24:36;;;;;;;;;;;12.30;99.90;;;;;;5055901;28;19915;-78
2022/01/28 15:27:02;;;;;;;;;;;12.10;99.90;;;;;;5055937;28;19975;-79
2022/01/28 15:37:15;;;;;;;;;;;11.70;99.90;;;;;;5055795;28;19908;-79
2022/01/28 15:39:41;;;;;;;;;;;11.60;99.90;;;;;;5055826;28;19931;-79
2022/01/28 15:42:09;;;;;;;;;;;11.50;99.90;;;;;;5055896;28;20383;-79
2022/01/28 15:44:35;;;;;;;;;;;11.60;99.90;;;;;;5055377;28;19927;-79
2022/01/28 15:47:03;;;;;;;;;;;11.80;99.90;;;;;;5055491;28;19909;-79
2022/01/28 15:49:29;;;;;;;;;;;11.90;99.90;;;;;;5055652;28;19916;-79
2022/01/28 15:51:55;;;;;;;;;;;11.70;99.90;;;;;;5055515;28;19966;-79
2022/01/28 15:54:21;;;;;;;;;;;11.80;99.90;;;;;;5054085;28;19912;-79
2022/01/28 15:56:46;;;;;;;;;;;11.90;99.90;;;;;;5055343;28;20422;-78
2022/01/28 15:59:12;;;;;;;;;;;12.00;99.90;;;;;;5055402;28;19909;-79
2022/01/28 16:01:37;;;;;;;;;;;12.10;99.90;;;;;;5055390;28;19909;-79
2022/01/28 16:04:03;;;;;;;;;;;12.10;99.90;;;;;;5055340;28;19991;-79
2022/01/28 16:06:30;;;;;;;;;;;12.10;99.90;;;;;;5055358;28;19966;-78
2022/01/28 16:08:57;;;;;;;;;;;11.90;99.90;;;;;;5055132;28;19986;-79